Cactus Peak, Santa Catalina Island Weather observations

Data are for 10 minute period ending at time listed.
 Day   Time   Solar   Ave.   Ave.  Ave.  Vector    Max.   Stn.    Total
  of    of     Rad.   Air    Rel.  Wind   Wind     Wind   Baro.  Precip.
Year   Day            Temp.  Hum.  Speed  Dir.     Gust   Pres.         
2026   (PST)   W/m2    F      %     mph   deg.      mph    mb.     in.  
------------------------------------------------------------------------
 127    2:10    0.0    55   84.4     8    138.7     9.0    999.0   0.00  
 127    2:20    0.0    55   82.7     7    138.2     9.0    999.0   0.00  
 127    2:30    0.0    56   79.0     7    141.4     9.0    999.0   0.00  
 127    2:40    0.0    56   79.0     7    136.4     9.0    999.0   0.00  
 127    2:50    0.0    56   77.9     5    130.0     6.0    999.0   0.00  
 127    3:00    0.0    56   76.6     7    144.6     9.6    999.0   0.00  
 127    3:10    0.0    55   82.3     6    162.8     9.0    999.0   0.00  
 127    3:20    0.0    55   83.4     8    161.7    10.8    999.0   0.00  
 127    3:30    0.0    55   88.3     9    155.3    10.8    999.0   0.00  
 127    3:40    0.0    54   89.5    10    155.5    10.8    999.0   0.00  
 127    3:50    0.0    54   91.0    10    154.5    11.3    999.0   0.00  
 127    4:00    0.0    54   97.9    10    158.3    11.9    999.0   0.00  
 127    4:10    0.0    54   48.4     7    169.4     9.6    999.0   0.00  
 127    4:20    0.0    53   72.0     6    171.5     9.6    999.0   0.00  
 127    4:30    0.0    54    0.4     6    173.5     8.4    999.0   0.00  
 127    4:40    0.0    53    8.8     5    180.7     7.2    999.0   0.00  
 127    4:50    0.0    53   96.4     6    182.7     7.8    999.0   0.00  
 127    5:00    2.0    52   99.9     6    180.5     8.4    999.0   0.00  
 127    5:10    9.0    52   99.9     7    184.1     8.4    999.0   0.00  
 127    5:20   18.0    52   99.9     5    183.9     9.0    999.0   0.00  
 127    5:30   37.0    52   99.9     1    177.5     3.6    999.0   0.00  
 127    5:40   58.0    52   99.9     4    187.7     6.0    999.0   0.00  
 127    5:50   97.0    54   99.9     1     57.4     2.4    999.0   0.00  
 127    6:00  125.0    55   99.9     1     12.9     0.6    999.0   0.00  
 127    6:10  123.0    54   99.9     1    210.4     2.4    999.0   0.00  
 127    6:20  140.0    54   99.9     3    206.6     6.0    999.0   0.00  
 127    6:30  115.0    54   99.9     3    233.8     6.0    999.0   0.00  
 127    6:40  147.0    54   99.9     3    215.9     5.4    999.0   0.00  
 127    6:50  154.0    54   99.9     2    224.8     5.4    999.0   0.00  
 127    7:00  156.0    54   99.9     2    315.9     4.8    999.0   0.00  
 127    7:10  191.0    54   99.9     3     18.7     5.4    999.0   0.00  
 127    7:20  256.0    55   99.9     4     13.5     6.0    999.0   0.00  
 127    7:30  286.0    55   99.9     4     24.3     6.6    999.0   0.00  
 127    7:40  307.0    55   99.9     3     25.7     5.4    999.0   0.00  
 127    7:50  461.0    57   99.9     3      8.1     4.8    999.0   0.00  
 127    8:00  459.0    59   79.5     2     39.5     4.8    999.0   0.00  
 127    8:10  527.0    60    0.4     4     25.8     6.0    999.0   0.00  
 127    8:20  557.0    61   18.0     1    162.5     3.6    999.0   0.00  
 127    8:30  588.0    62   80.5     2    167.9     4.2    999.0   0.00  
 127    8:40  613.0    61   78.7     3    182.3     6.0    999.0   0.00  
 127    8:50  637.0    60   79.1     3    162.2     6.0    999.0   0.00  
 127    9:00  605.0    62   74.5     2    302.9     5.4    999.0   0.00  
 127    9:10  697.0    65   67.9     2    349.5     6.6    999.0   0.00  
 127    9:20  724.0    66   65.2     2    316.1     6.0    999.0   0.00  
 127    9:30  745.0    63   70.9     5    174.9     9.0    999.0   0.00  
 127    9:40  756.0    61   76.4     6    176.9    10.8    999.0   0.00  
 127    9:50  771.0    61   75.3     5    184.7     7.8    999.0   0.00  
 127   10:00  798.0    62   74.4     7    180.7    11.9    999.0   0.00  
 127   10:10  814.0    61   76.8     7    173.8    10.8    999.0   0.00  
 127   10:20  829.0    61   76.0     6    182.1     9.0    999.0   0.00  
 127   10:30  846.0    61   75.3     7    178.8    11.3    999.0   0.00  
 127   10:40  859.0    62   74.2     7    179.7    12.5    999.0   0.00  
 127   10:50  872.0    62   73.8     6    182.6    10.2    999.0   0.00  
 127   11:00  884.0    63   71.9     6    184.6    10.8    999.0   0.00  
 127   11:10  894.0    63   72.1     7    171.5    11.9    999.0   0.00  
 127   11:20  895.0    64   68.9     3    162.5     6.0    999.0   0.00  
 127   11:30  911.0    66   64.8     2     60.9     7.2    999.0   0.00  
 127   11:40  922.0    69   58.7     2    352.2     4.2    999.0   0.00  
 127   11:50  924.0    69   59.2     4    348.8     8.4    999.0   0.00  
 127   12:00  924.0    69   59.7     2    280.5     5.4    999.0   0.00  
 127   12:10  923.0    69   58.9     4    340.3     7.2    999.0   0.00  
 127   12:20  920.0    69   58.8     5    346.2     9.0    999.0   0.00  
 127   12:30  913.0    67   62.6     9    351.8    13.1    999.0   0.00  
 127   12:40  904.0    65   65.9    10      0.3    13.1    999.0   0.00  
 127   12:50  896.0    65   65.7     9      4.6    12.5    999.0   0.00  
 127   13:00  887.0    64   68.9    10      7.9    13.1    999.0   0.00  
 127   13:10  684.0    63   70.2     9    354.1    13.1    999.0   0.00  
 127   13:20  863.0    64   70.0    10      0.8    13.1    999.0   0.00  
 127   13:30  849.0    64   69.2     9      5.2    13.7    999.0   0.00  
 127   13:40  834.0    64   69.9     9    355.4    13.1    999.0   0.00  
 127   13:50  817.0    63   71.3    10    353.4    13.7    999.0   0.00  
 127   14:00  799.0    63   71.8    10    351.9    12.5    999.0   0.00  
 127   14:10  778.0    63   72.6     9    356.3    13.1    999.0   0.00  
 127   14:20  755.0    63   72.3     9      6.4    13.1    999.0   0.00  
 127   14:30  733.0    63   71.5     8    359.9    11.9    999.0   0.00  
 127   14:40  709.0    63   71.1     8    359.5    10.2    999.0   0.00  
 127   14:50  685.0    63   70.8     7    351.8    11.3    999.0   0.00  
 127   15:00  658.0    63   72.2     9    356.2    11.3    999.0   0.00  
 127   15:10  630.0    62   73.6     8    357.1    10.8    999.0   0.00  
 127   15:20  602.0    62   71.6     6    357.5     9.6    999.0   0.00  
 127   15:30  574.0    62   71.7     7    349.2     9.6    999.0   0.00  
 127   15:40  545.0    62   72.8     8    353.0    10.2    999.0   0.00  
 127   15:50  514.0    62   73.3     8    354.9    10.2    999.0   0.00  
 127   16:00  483.0    61   75.1     8      0.2    10.8    999.0   0.00  
 127   16:10  452.0    60   76.6     8    356.0    10.8    999.0   0.00  
 127   16:20  419.0    60   77.0    10    349.1    13.1    999.0   0.00  
 127   16:30  381.0    58   82.7    11    354.2    13.7    999.0   0.00  
 127   16:40  351.0    58   84.9    10      3.9    11.9    999.0   0.00  
 127   16:50  318.0    57   85.8    10    357.5    11.3    999.0   0.00  
 127   17:00  290.0    58   84.7    10    352.6    11.3    999.0   0.00  
 127   17:10  254.0    58   85.2     9      3.9    11.9    999.0   0.00  
 127   17:20  217.0    57   87.0     9    352.0    10.2    999.0   0.00  
 127   17:30  187.0    57   87.1     9    352.5    11.3    999.0   0.00  
 127   17:40  156.0    56   92.6     9    355.0    10.8    999.0   0.00  
 127   17:50  131.0    56   99.9     9      3.2    10.8    999.0   0.00  
 127   18:00   87.0    55   15.3     9    357.2    11.3    999.0   0.00  
 127   18:10   57.0    54   23.3     9    357.0    10.8    999.0   0.00  
 127   18:20   18.0    54   99.9    10    349.2    11.3    999.0   0.00  
 127   18:30   13.0    54   99.9     8    352.6    11.3    999.0   0.00  
 127   18:40    8.0    54   99.9     7      3.8     7.8    999.0   0.00  
 127   18:50    3.0    54   99.9     7    357.8     9.0    999.0   0.00  
 127   19:00    0.0    54   99.9     8    359.0    10.2    999.0   0.00  
 127   19:10    0.0    54   99.9    10      9.6    11.9    999.0   0.00  
 127   19:20    0.0    54   99.9    10     13.7    13.1    999.0   0.00  
 127   19:30    0.0    54   99.9     9     10.8    11.3    999.0   0.00  
 127   19:40    0.0    54   99.9    10      9.2    11.9    999.0   0.00  
 127   19:50    0.0    54   99.9     9      9.9    11.3    999.0   0.00  
 127   20:00    0.0    54   99.9     8     13.0    10.2    999.0   0.00  
 127   20:10    0.0    54   99.9     7      3.7     9.0    999.0   0.00  
 127   20:20    0.0    54   99.9     7    359.0     9.0    999.0   0.00  
 127   20:30    0.0    54   99.9     6    355.8     9.0    999.0   0.00  
 127   20:40    0.0    54   99.9     6    354.1     6.6    999.0   0.00  
 127   20:50    0.0    54   99.9     6      0.1     8.4    999.0   0.00  
 127   21:00    0.0    54   99.9     6      1.0     7.8    999.0   0.00  
 127   21:10    0.0    54   99.9     5    355.3     6.6    999.0   0.00  
 127   21:20    0.0    54   99.9     4      6.8     5.4    999.0   0.00  
 127   21:30    0.0    54   99.9     4     14.9     5.4    999.0   0.00  
 127   21:40    0.0    54   99.9     2     19.6     4.8    999.0   0.00  
 127   21:50    0.0    54   99.9     3     22.1     6.0    999.0   0.00  
 127   22:00    0.0    54   99.9     6     16.0     6.6    999.0   0.00  
 127   22:10    0.0    54   99.9     4     27.5     6.6    999.0   0.00  
 127   22:20    0.0    54   99.9     2    145.0     2.4    999.0   0.00  
 127   22:30    0.0    54   99.9     3    176.7     9.0    999.0   0.00  
 127   22:40    0.0    53   99.9     6    180.4    10.2    999.0   0.00  
 127   22:50    0.0    54   99.9     6    181.8     9.6    999.0   0.00  
 127   23:00    0.0    54   99.9     2    147.8     4.2    999.0   0.00  
 127   23:10    0.0    53   99.9     1      9.9     4.2    999.0   0.00  
 127   23:20    0.0    53   99.9     4     18.9     4.8    999.0   0.00  
 127   23:30    0.0    53   99.9     4     33.6     6.0    999.0   0.00  
 127   23:40    0.0    54   99.9     4     37.4     6.0    999.0   0.00  
 127   23:50    0.0    54   99.9     5     34.7     6.6    999.0   0.00  
 128    0:00    0.0    54   99.9     3     44.0     4.8    999.0   0.00  
 128    0:10    0.0    54   99.9     1     67.6     3.0    999.0   0.00  
 128    0:20    0.0    54   99.9     1     38.3     3.6    999.0   0.00  
 128    0:30    0.0    54   99.9     1     32.3     3.6    999.0   0.00  
 128    0:40    0.0    54   99.9     2     81.4     3.6    999.0   0.00  
 128    0:50    0.0    54   99.9     4     26.2     5.4    999.0   0.00  
 128    1:00    0.0    54   99.9     4     26.3     7.8    999.0   0.00  
 128    1:10    0.0    54   99.9     4     28.6     6.6    999.0   0.00  
 128    1:20    0.0    54   99.9     4     34.7     6.6    999.0   0.00  
 128    1:30    0.0    54   99.9     5     33.4     7.8    999.0   0.00  
 128    1:40    0.0    54   99.9     3     39.7     6.0    999.0   0.00  
 128    1:50    0.0    54   99.9     2     55.5     5.4    999.0   0.00  
 128    2:00    0.0    54   99.9     1     40.8     3.6    999.0   0.00  

Return to Cactus Peak graphs page.


Western Regional Climate Center,wrcc@dri.edu